createdAt,value
2023-11-28T00:01:43.625Z,38.30
2023-11-28T00:06:48.508Z,35.72
2023-11-28T00:11:51.957Z,36.30
2023-11-28T00:16:55.435Z,34.05
2023-11-28T00:22:00.210Z,36.13
2023-11-28T00:27:04.583Z,32.70
2023-11-28T00:32:09.045Z,29.05
2023-11-28T00:37:13.850Z,26.17
2023-11-28T00:42:17.998Z,24.50
2023-11-28T00:47:21.515Z,19.85
2023-11-28T00:52:26.533Z,21.42
2023-11-28T00:57:29.995Z,19.63
2023-11-28T01:02:33.565Z,16.45
2023-11-28T01:07:38.833Z,18.52
2023-11-28T01:12:42.591Z,16.45
2023-11-28T01:17:46.744Z,18.50
2023-11-28T01:22:51.595Z,18.58
2023-11-28T01:27:55.440Z,16.20
2023-11-28T01:32:58.909Z,15.05
2023-11-28T01:38:04.103Z,15.63
2023-11-28T01:43:07.589Z,14.20
2023-11-28T01:48:10.958Z,14.50
2023-11-28T01:53:16.202Z,13.85
2023-11-28T01:58:19.811Z,16.05
2023-11-28T02:03:28.737Z,14.88
2023-11-28T02:08:35.259Z,13.38
2023-11-28T02:13:38.937Z,11.85
2023-11-28T02:18:43.358Z,11.20
2023-11-28T02:23:48.269Z,11.10
2023-11-28T02:28:53.319Z,10.90
2023-11-28T02:33:56.753Z,14.90
2023-11-28T02:39:00.174Z,10.27
2023-11-28T02:44:05.265Z,9.55
2023-11-28T02:49:08.747Z,8.35
2023-11-28T02:54:12.198Z,8.63
2023-11-28T02:59:17.010Z,8.68
2023-11-28T03:04:20.528Z,8.00
2023-11-28T03:09:24.017Z,8.10
2023-11-28T03:14:28.790Z,8.80
2023-11-28T03:19:32.330Z,9.10
2023-11-28T03:24:35.868Z,8.68
2023-11-28T03:29:41.157Z,8.07
2023-11-28T03:34:45.089Z,7.32
2023-11-28T03:39:48.585Z,7.15
2023-11-28T03:44:53.427Z,6.10
2023-11-28T03:49:57.454Z,6.60
2023-11-28T03:55:00.922Z,6.10
2023-11-28T04:00:08.998Z,5.60
2023-11-28T04:05:13.622Z,7.03
2023-11-28T04:10:17.052Z,5.75
2023-11-28T04:15:21.845Z,6.15
2023-11-28T04:20:25.228Z,5.40
2023-11-28T04:25:28.825Z,5.30
2023-11-28T04:30:34.476Z,5.55
2023-11-28T04:35:38.327Z,4.70
2023-11-28T04:40:41.751Z,6.43
2023-11-28T04:45:46.550Z,6.78
2023-11-28T04:50:49.985Z,5.43
2023-11-28T04:55:53.537Z,4.45
2023-11-28T05:00:58.536Z,5.13
2023-11-28T05:06:02.076Z,6.53
2023-11-28T05:11:07.133Z,7.85
2023-11-28T05:16:12.512Z,6.13
2023-11-28T05:21:18.033Z,5.13
2023-11-28T05:26:27.715Z,7.05
2023-11-28T05:31:32.779Z,4.70
2023-11-28T05:36:36.719Z,5.22
2023-11-28T05:41:40.187Z,4.38
2023-11-28T05:46:45.094Z,4.80
2023-11-28T05:51:48.532Z,7.47
2023-11-28T05:56:51.983Z,5.05
2023-11-28T06:02:05.233Z,3.88
2023-11-28T06:07:10.332Z,3.50
2023-11-28T06:12:14.257Z,8.52
2023-11-28T06:17:19.079Z,6.45
2023-11-28T06:22:22.664Z,7.05
2023-11-28T06:27:26.745Z,5.15
2023-11-28T06:32:32.037Z,4.25
2023-11-28T06:37:36.410Z,4.47
2023-11-28T06:42:39.824Z,5.43
2023-11-28T06:47:44.717Z,5.40
2023-11-28T06:52:48.438Z,3.80
2023-11-28T06:57:51.813Z,4.30
2023-11-28T07:02:56.649Z,3.53
2023-11-28T07:08:00.256Z,3.08
2023-11-28T07:13:03.723Z,5.10
2023-11-28T07:18:10.108Z,3.60
2023-11-28T07:23:14.901Z,3.67
2023-11-28T07:28:18.433Z,3.28
2023-11-28T07:33:24.161Z,2.25
2023-11-28T07:38:27.916Z,3.28
2023-11-28T07:43:31.558Z,4.07
2023-11-28T07:48:36.288Z,2.33
2023-11-28T07:53:39.758Z,3.13
2023-11-28T07:58:43.193Z,3.00
2023-11-28T08:03:48.100Z,3.08
2023-11-28T08:08:51.782Z,4.88
2023-11-28T08:13:55.287Z,2.25
2023-11-28T08:19:00.097Z,3.10
2023-11-28T08:24:03.498Z,2.95
2023-11-28T08:29:06.943Z,5.80
2023-11-28T08:34:11.758Z,14.15
2023-11-28T08:39:16.315Z,9.10
2023-11-28T08:44:19.787Z,8.75
2023-11-28T08:49:24.819Z,4.85
2023-11-28T08:54:30.728Z,4.63
2023-11-28T08:59:34.105Z,6.95
2023-11-28T09:04:39.078Z,6.57
2023-11-28T09:09:42.770Z,7.25
2023-11-28T09:14:54.138Z,5.97
2023-11-28T09:20:01.803Z,7.97
2023-11-28T09:25:06.356Z,18.83
2023-11-28T09:30:11.350Z,17.83
2023-11-28T09:35:16.501Z,56.33
2023-11-28T09:40:20.380Z,76.27
2023-11-28T09:45:24.509Z,61.80
2023-11-28T09:50:30.667Z,53.25
2023-11-28T09:55:35.555Z,45.17
2023-11-28T10:00:40.529Z,40.58
2023-11-28T10:05:45.327Z,34.20
2023-11-28T10:10:50.367Z,25.17
2023-11-28T10:15:55.642Z,22.75
2023-11-28T10:21:00.668Z,23.92
2023-11-28T10:26:04.518Z,24.90
2023-11-28T10:31:08.605Z,23.52
2023-11-28T10:36:16.892Z,24.05
2023-11-28T10:41:20.412Z,17.30
2023-11-28T10:46:23.909Z,17.83
2023-11-28T10:51:32.348Z,19.42
2023-11-28T10:56:49.520Z,18.70
2023-11-28T11:01:53.437Z,21.57
2023-11-28T11:06:59.406Z,16.38
2023-11-28T11:12:05.435Z,16.95
2023-11-28T11:17:26.948Z,13.05
2023-11-28T11:22:38.944Z,15.18
2023-11-28T11:27:42.386Z,15.75
2023-11-28T11:32:46.189Z,14.70
2023-11-28T11:37:50.994Z,14.65
2023-11-28T11:42:54.710Z,13.40
2023-11-28T11:48:02.961Z,14.45
2023-11-28T11:53:10.727Z,10.63
2023-11-28T11:58:15.105Z,9.80
2023-11-28T12:03:19.924Z,7.72
2023-11-28T12:08:25.785Z,7.43
2023-11-28T12:13:29.448Z,6.60
2023-11-28T12:18:34.097Z,6.85
2023-11-28T12:23:38.955Z,4.50
2023-11-28T12:28:42.554Z,5.15
2023-11-28T12:33:46.770Z,4.68
2023-11-28T12:38:53.991Z,5.97
2023-11-28T12:44:01.338Z,3.50
2023-11-28T12:49:05.790Z,4.15
2023-11-28T12:54:15.474Z,3.25
2023-11-28T12:59:19.713Z,3.45
2023-11-28T13:04:23.786Z,3.33
2023-11-28T13:09:29.519Z,4.25
2023-11-28T13:14:33.109Z,3.38
2023-11-28T13:19:36.844Z,4.38
2023-11-28T13:24:41.615Z,3.38
2023-11-28T13:29:47.439Z,2.78
2023-11-28T13:34:51.033Z,2.75
2023-11-28T13:39:56.015Z,5.40
2023-11-28T13:44:59.405Z,4.10
2023-11-28T13:50:06.596Z,4.63
2023-11-28T13:55:12.325Z,3.95
2023-11-28T14:00:18.581Z,4.93
2023-11-28T14:05:22.292Z,3.17
2023-11-28T14:10:28.257Z,3.88
2023-11-28T14:15:32.214Z,4.07
2023-11-28T14:20:35.953Z,4.05
2023-11-28T14:25:40.747Z,3.78
2023-11-28T14:30:46.989Z,2.72
2023-11-28T14:35:50.496Z,2.80
2023-11-28T14:40:55.661Z,3.15
2023-11-28T14:45:59.147Z,2.53
2023-11-28T14:51:02.548Z,2.58
2023-11-28T14:56:09.181Z,2.75
2023-11-28T15:01:12.654Z,2.42
2023-11-28T15:06:16.349Z,2.97
2023-11-28T15:11:21.482Z,2.00
2023-11-28T15:16:25.836Z,3.28
2023-11-28T15:21:29.431Z,2.53
2023-11-28T15:26:34.305Z,2.08
2023-11-28T15:31:37.747Z,3.60
2023-11-28T15:36:41.208Z,2.22
2023-11-28T15:41:46.054Z,1.95
2023-11-28T15:46:49.721Z,4.28
2023-11-28T15:51:53.425Z,3.28
2023-11-28T15:56:58.207Z,3.17
2023-11-28T16:02:02.113Z,1.92
2023-11-28T16:07:05.921Z,3.03
2023-11-28T16:12:11.551Z,4.15
2023-11-28T16:17:15.240Z,3.67
2023-11-28T16:22:18.961Z,4.22
2023-11-28T16:27:23.774Z,5.25
2023-11-28T16:32:27.493Z,3.22
2023-11-28T16:37:31.048Z,5.60
2023-11-28T16:42:35.898Z,23.45
2023-11-28T16:47:39.530Z,31.20
2023-11-28T16:52:43.098Z,29.58
2023-11-28T16:57:48.137Z,33.42
2023-11-28T17:02:51.671Z,27.83
2023-11-28T17:07:55.168Z,26.40
2023-11-28T17:13:00.011Z,28.90
2023-11-28T17:18:03.695Z,25.05
2023-11-28T17:23:07.152Z,27.63
2023-11-28T17:28:11.936Z,28.92
2023-11-28T17:33:15.520Z,30.33
2023-11-28T17:38:19.443Z,32.13
2023-11-28T17:43:24.292Z,22.23
2023-11-28T17:48:27.907Z,26.10
2023-11-28T17:53:31.383Z,27.70
2023-11-28T17:58:36.281Z,18.30
2023-11-28T18:03:39.938Z,21.00
2023-11-28T18:08:43.756Z,18.25
2023-11-28T18:13:48.527Z,15.27
2023-11-28T18:18:54.977Z,19.35
2023-11-28T18:24:00.213Z,18.33
2023-11-28T18:29:05.009Z,17.15
2023-11-28T18:34:09.079Z,14.55
2023-11-28T18:44:17.393Z,12.27
2023-11-28T18:49:20.793Z,10.88
2023-11-28T18:54:24.327Z,11.57
2023-11-28T18:59:29.146Z,11.55
2023-11-28T19:04:32.721Z,13.20
2023-11-28T19:09:37.558Z,13.50
2023-11-28T19:14:43.808Z,9.90
2023-11-28T19:19:47.450Z,11.27
2023-11-28T19:24:50.929Z,10.20
2023-11-28T19:29:55.706Z,9.23
2023-11-28T19:34:59.138Z,12.40
2023-11-28T19:40:02.560Z,9.98
2023-11-28T19:45:09.536Z,10.50
2023-11-28T19:50:13.909Z,8.07
2023-11-28T19:55:17.646Z,8.90
2023-11-28T20:00:23.798Z,10.02
2023-11-28T20:05:28.564Z,7.80
2023-11-28T20:10:32.245Z,9.38
2023-11-28T20:15:37.930Z,7.97
2023-11-28T20:20:41.989Z,8.52
2023-11-28T20:25:46.468Z,10.15
2023-11-28T20:30:52.026Z,10.05
2023-11-28T20:35:56.814Z,8.02
2023-11-28T20:41:01.909Z,8.70
2023-11-28T20:46:07.521Z,8.77
2023-11-28T20:51:11.144Z,8.30
2023-11-28T20:56:15.944Z,9.48
2023-11-28T21:01:22.149Z,7.22
2023-11-28T21:06:25.846Z,8.13
2023-11-28T21:11:29.415Z,8.35
2023-11-28T21:16:34.210Z,8.82
2023-11-28T21:21:37.822Z,7.70
2023-11-28T21:26:44.073Z,11.55
2023-11-28T21:31:52.100Z,31.90
2023-11-28T21:36:55.755Z,66.95
2023-11-28T21:41:59.204Z,88.70
2023-11-28T21:47:07.245Z,103.80
2023-11-28T21:52:11.313Z,107.53
2023-11-28T21:57:14.818Z,117.93
2023-11-28T22:02:20.967Z,116.88
2023-11-28T22:07:26.257Z,121.82
2023-11-28T22:12:30.232Z,121.93
2023-11-28T22:17:35.341Z,147.63
2023-11-28T22:22:39.119Z,145.52
2023-11-28T22:27:42.522Z,151.63
2023-11-28T22:32:48.250Z,150.38
2023-11-28T22:37:54.546Z,142.98
2023-11-28T22:42:57.944Z,139.65
2023-11-28T22:48:02.990Z,133.10
2023-11-28T22:53:06.511Z,127.95
2023-11-28T22:58:10.083Z,119.60
2023-11-28T23:03:15.037Z,117.97
2023-11-28T23:08:18.501Z,107.30
2023-11-28T23:13:21.990Z,102.85
2023-11-28T23:18:27.281Z,88.78
2023-11-28T23:23:30.669Z,83.43
2023-11-28T23:28:34.093Z,76.47
2023-11-28T23:33:38.997Z,76.55
2023-11-28T23:38:42.463Z,69.25
2023-11-28T23:43:46.673Z,71.13
2023-11-28T23:48:53.509Z,65.75
2023-11-28T23:53:57.015Z,63.63
2023-11-28T23:59:00.615Z,64.70
